sensor_id;sensor_type;location;lat;lon;timestamp;temperature;humidity
19385;DHT22;9828;54.122;17.974;2023-07-20T00:04:07;13.60;99.90
19385;DHT22;9828;54.122;17.974;2023-07-20T00:09:28;13.60;1.00
19385;DHT22;9828;54.122;17.974;2023-07-20T00:14:50;13.50;1.00
19385;DHT22;9828;54.122;17.974;2023-07-20T00:20:14;13.50;99.90
19385;DHT22;9828;54.122;17.974;2023-07-20T00:25:35;13.40;99.90
19385;DHT22;9828;54.122;17.974;2023-07-20T00:30:59;13.40;99.90
19385;DHT22;9828;54.122;17.974;2023-07-20T00:36:21;13.30;1.00
19385;DHT22;9828;54.122;17.974;2023-07-20T00:41:42;13.20;1.00
19385;DHT22;9828;54.122;17.974;2023-07-20T00:47:04;13.20;99.90
19385;DHT22;9828;54.122;17.974;2023-07-20T00:52:27;13.20;1.00
19385;DHT22;9828;54.122;17.974;2023-07-20T00:57:49;13.20;99.90
19385;DHT22;9828;54.122;17.974;2023-07-20T01:03:11;13.10;99.90
19385;DHT22;9828;54.122;17.974;2023-07-20T01:13:59;13.30;99.90
19385;DHT22;9828;54.122;17.974;2023-07-20T01:19:20;13.20;99.90
19385;DHT22;9828;54.122;17.974;2023-07-20T01:31:13;13.20;1.00
19385;DHT22;9828;54.122;17.974;2023-07-20T01:36:36;13.10;1.00
19385;DHT22;9828;54.122;17.974;2023-07-20T01:41:59;13.20;1.00
19385;DHT22;9828;54.122;17.974;2023-07-20T01:47:21;13.20;1.00
19385;DHT22;9828;54.122;17.974;2023-07-20T01:52:42;13.30;1.00
19385;DHT22;9828;54.122;17.974;2023-07-20T01:58:04;13.50;1.00
19385;DHT22;9828;54.122;17.974;2023-07-20T02:03:26;13.60;99.90
19385;DHT22;9828;54.122;17.974;2023-07-20T02:08:48;13.70;1.00
19385;DHT22;9828;54.122;17.974;2023-07-20T02:14:09;13.90;1.00
19385;DHT22;9828;54.122;17.974;2023-07-20T02:19:30;13.90;1.00
19385;DHT22;9828;54.122;17.974;2023-07-20T02:24:52;13.90;99.90
19385;DHT22;9828;54.122;17.974;2023-07-20T02:30:14;13.80;1.00
19385;DHT22;9828;54.122;17.974;2023-07-20T02:35:37;13.70;1.00
19385;DHT22;9828;54.122;17.974;2023-07-20T02:40:58;13.90;99.90
19385;DHT22;9828;54.122;17.974;2023-07-20T02:46:19;13.90;1.00
19385;DHT22;9828;54.122;17.974;2023-07-20T02:51:40;13.80;99.90
19385;DHT22;9828;54.122;17.974;2023-07-20T02:57:02;13.80;99.90
19385;DHT22;9828;54.122;17.974;2023-07-20T03:02:23;13.80;1.00
19385;DHT22;9828;54.122;17.974;2023-07-20T03:07:44;13.80;1.00
19385;DHT22;9828;54.122;17.974;2023-07-20T03:13:06;13.90;1.00
19385;DHT22;9828;54.122;17.974;2023-07-20T03:18:28;13.90;99.90
19385;DHT22;9828;54.122;17.974;2023-07-20T03:23:49;14.00;99.90
19385;DHT22;9828;54.122;17.974;2023-07-20T03:29:11;14.10;1.00
19385;DHT22;9828;54.122;17.974;2023-07-20T03:34:32;14.20;1.00
19385;DHT22;9828;54.122;17.974;2023-07-20T03:39:53;14.20;1.00
19385;DHT22;9828;54.122;17.974;2023-07-20T03:45:14;14.20;99.90
19385;DHT22;9828;54.122;17.974;2023-07-20T03:50:36;14.30;1.00
19385;DHT22;9828;54.122;17.974;2023-07-20T03:55:57;14.40;1.00
19385;DHT22;9828;54.122;17.974;2023-07-20T04:01:19;14.50;99.90
19385;DHT22;9828;54.122;17.974;2023-07-20T04:06:40;14.40;99.90
19385;DHT22;9828;54.122;17.974;2023-07-20T04:12:01;14.50;1.00
19385;DHT22;9828;54.122;17.974;2023-07-20T04:17:22;14.70;1.00
19385;DHT22;9828;54.122;17.974;2023-07-20T04:22:44;14.80;1.00
19385;DHT22;9828;54.122;17.974;2023-07-20T04:28:08;14.90;1.00
19385;DHT22;9828;54.122;17.974;2023-07-20T04:33:37;15.00;1.00
19385;DHT22;9828;54.122;17.974;2023-07-20T04:38:58;15.10;99.90
19385;DHT22;9828;54.122;17.974;2023-07-20T04:44:26;15.10;99.90
19385;DHT22;9828;54.122;17.974;2023-07-20T04:49:48;15.10;1.00
19385;DHT22;9828;54.122;17.974;2023-07-20T04:55:09;15.10;99.90
19385;DHT22;9828;54.122;17.974;2023-07-20T05:00:34;15.20;1.00
19385;DHT22;9828;54.122;17.974;2023-07-20T05:05:57;15.20;91.10
19385;DHT22;9828;54.122;17.974;2023-07-20T05:11:19;15.30;1.00
19385;DHT22;9828;54.122;17.974;2023-07-20T05:16:40;15.40;1.00
19385;DHT22;9828;54.122;17.974;2023-07-20T05:22:02;15.50;99.90
19385;DHT22;9828;54.122;17.974;2023-07-20T05:27:26;15.50;1.00
19385;DHT22;9828;54.122;17.974;2023-07-20T05:32:47;15.70;99.90
19385;DHT22;9828;54.122;17.974;2023-07-20T05:38:11;15.60;1.00
19385;DHT22;9828;54.122;17.974;2023-07-20T05:43:33;15.50;1.00
19385;DHT22;9828;54.122;17.974;2023-07-20T05:48:54;15.50;35.70
19385;DHT22;9828;54.122;17.974;2023-07-20T05:54:16;15.50;1.00
19385;DHT22;9828;54.122;17.974;2023-07-20T05:59:37;15.50;99.90
19385;DHT22;9828;54.122;17.974;2023-07-20T06:04:59;15.50;99.90
19385;DHT22;9828;54.122;17.974;2023-07-20T06:10:20;15.60;99.90
19385;DHT22;9828;54.122;17.974;2023-07-20T06:15:42;15.70;99.90
19385;DHT22;9828;54.122;17.974;2023-07-20T06:47:59;16.70;1.00
19385;DHT22;9828;54.122;17.974;2023-07-20T06:53:20;16.60;1.00
19385;DHT22;9828;54.122;17.974;2023-07-20T06:58:41;16.90;99.90
19385;DHT22;9828;54.122;17.974;2023-07-20T07:04:03;17.60;99.90
19385;DHT22;9828;54.122;17.974;2023-07-20T07:09:26;18.60;99.90
19385;DHT22;9828;54.122;17.974;2023-07-20T07:14:47;19.40;1.00
19385;DHT22;9828;54.122;17.974;2023-07-20T07:20:09;19.50;99.90
19385;DHT22;9828;54.122;17.974;2023-07-20T07:25:31;20.00;99.90
19385;DHT22;9828;54.122;17.974;2023-07-20T07:30:55;19.80;99.90
19385;DHT22;9828;54.122;17.974;2023-07-20T07:36:18;20.00;99.90
19385;DHT22;9828;54.122;17.974;2023-07-20T07:41:39;20.60;1.00
19385;DHT22;9828;54.122;17.974;2023-07-20T07:47:00;20.40;1.00
19385;DHT22;9828;54.122;17.974;2023-07-20T07:52:22;20.20;1.00
19385;DHT22;9828;54.122;17.974;2023-07-20T07:57:44;20.30;1.00
19385;DHT22;9828;54.122;17.974;2023-07-20T08:03:08;20.30;1.00
19385;DHT22;9828;54.122;17.974;2023-07-20T08:08:31;20.50;1.00
19385;DHT22;9828;54.122;17.974;2023-07-20T08:13:52;20.50;1.00
19385;DHT22;9828;54.122;17.974;2023-07-20T08:19:13;20.20;1.00
19385;DHT22;9828;54.122;17.974;2023-07-20T08:24:38;20.10;1.00
19385;DHT22;9828;54.122;17.974;2023-07-20T08:30:00;19.60;1.00
19385;DHT22;9828;54.122;17.974;2023-07-20T08:35:21;19.10;1.00
19385;DHT22;9828;54.122;17.974;2023-07-20T08:40:45;19.70;1.00
19385;DHT22;9828;54.122;17.974;2023-07-20T08:46:07;20.40;1.00
19385;DHT22;9828;54.122;17.974;2023-07-20T08:51:30;20.30;1.00
19385;DHT22;9828;54.122;17.974;2023-07-20T08:56:51;20.00;1.00
19385;DHT22;9828;54.122;17.974;2023-07-20T09:02:16;19.50;99.90
19385;DHT22;9828;54.122;17.974;2023-07-20T09:07:40;18.90;1.00
19385;DHT22;9828;54.122;17.974;2023-07-20T09:13:01;18.60;1.00
19385;DHT22;9828;54.122;17.974;2023-07-20T09:18:28;19.00;1.00
19385;DHT22;9828;54.122;17.974;2023-07-20T09:23:56;19.80;1.00
19385;DHT22;9828;54.122;17.974;2023-07-20T09:29:18;20.30;1.00
19385;DHT22;9828;54.122;17.974;2023-07-20T09:34:40;21.90;1.00
19385;DHT22;9828;54.122;17.974;2023-07-20T09:40:02;22.80;99.90
19385;DHT22;9828;54.122;17.974;2023-07-20T09:45:33;23.00;99.90
19385;DHT22;9828;54.122;17.974;2023-07-20T09:50:57;23.70;99.90
19385;DHT22;9828;54.122;17.974;2023-07-20T09:56:21;24.30;99.90
19385;DHT22;9828;54.122;17.974;2023-07-20T10:01:46;24.20;99.90
19385;DHT22;9828;54.122;17.974;2023-07-20T10:07:10;24.20;99.90
19385;DHT22;9828;54.122;17.974;2023-07-20T10:12:33;24.60;99.90
19385;DHT22;9828;54.122;17.974;2023-07-20T10:18:04;24.90;99.90
19385;DHT22;9828;54.122;17.974;2023-07-20T10:23:29;23.80;99.90
19385;DHT22;9828;54.122;17.974;2023-07-20T10:28:52;21.80;99.90
19385;DHT22;9828;54.122;17.974;2023-07-20T10:34:14;21.10;1.00
19385;DHT22;9828;54.122;17.974;2023-07-20T10:39:36;20.30;1.00
19385;DHT22;9828;54.122;17.974;2023-07-20T10:44:57;20.00;99.90
19385;DHT22;9828;54.122;17.974;2023-07-20T10:50:21;20.20;1.00
19385;DHT22;9828;54.122;17.974;2023-07-20T10:55:44;20.60;1.00
19385;DHT22;9828;54.122;17.974;2023-07-20T11:01:07;20.70;1.00
19385;DHT22;9828;54.122;17.974;2023-07-20T11:06:34;20.00;1.00
19385;DHT22;9828;54.122;17.974;2023-07-20T11:12:12;19.40;99.90
19385;DHT22;9828;54.122;17.974;2023-07-20T11:17:35;19.10;99.90
19385;DHT22;9828;54.122;17.974;2023-07-20T11:22:56;18.70;1.00
19385;DHT22;9828;54.122;17.974;2023-07-20T11:28:18;18.50;1.00
19385;DHT22;9828;54.122;17.974;2023-07-20T11:33:39;18.60;99.90
19385;DHT22;9828;54.122;17.974;2023-07-20T11:39:01;18.80;1.00
19385;DHT22;9828;54.122;17.974;2023-07-20T11:44:24;19.70;1.00
19385;DHT22;9828;54.122;17.974;2023-07-20T11:49:49;20.30;99.90
19385;DHT22;9828;54.122;17.974;2023-07-20T11:55:15;20.40;1.00
19385;DHT22;9828;54.122;17.974;2023-07-20T12:00:39;20.30;1.00
19385;DHT22;9828;54.122;17.974;2023-07-20T12:06:10;20.60;1.00
19385;DHT22;9828;54.122;17.974;2023-07-20T12:11:36;20.50;1.00
19385;DHT22;9828;54.122;17.974;2023-07-20T12:16:57;20.20;1.00
19385;DHT22;9828;54.122;17.974;2023-07-20T12:22:19;20.00;1.00
19385;DHT22;9828;54.122;17.974;2023-07-20T12:27:40;19.80;1.00
19385;DHT22;9828;54.122;17.974;2023-07-20T12:33:03;19.40;1.00
19385;DHT22;9828;54.122;17.974;2023-07-20T12:38:26;19.10;1.00
19385;DHT22;9828;54.122;17.974;2023-07-20T12:43:48;19.20;1.00
19385;DHT22;9828;54.122;17.974;2023-07-20T12:49:11;19.10;1.00
19385;DHT22;9828;54.122;17.974;2023-07-20T12:54:32;19.10;30.60
19385;DHT22;9828;54.122;17.974;2023-07-20T12:59:53;19.20;99.90
19385;DHT22;9828;54.122;17.974;2023-07-20T13:05:15;20.00;99.90
19385;DHT22;9828;54.122;17.974;2023-07-20T13:10:38;20.30;1.00
19385;DHT22;9828;54.122;17.974;2023-07-20T13:15:59;20.50;1.00
19385;DHT22;9828;54.122;17.974;2023-07-20T13:21:21;21.10;1.00
19385;DHT22;9828;54.122;17.974;2023-07-20T13:26:44;21.50;1.00
19385;DHT22;9828;54.122;17.974;2023-07-20T13:32:06;21.70;1.00
19385;DHT22;9828;54.122;17.974;2023-07-20T13:37:28;21.80;1.00
19385;DHT22;9828;54.122;17.974;2023-07-20T13:42:49;21.40;1.00
19385;DHT22;9828;54.122;17.974;2023-07-20T13:48:11;21.00;1.00
19385;DHT22;9828;54.122;17.974;2023-07-20T13:53:33;20.50;1.00
19385;DHT22;9828;54.122;17.974;2023-07-20T13:58:57;20.60;1.00
19385;DHT22;9828;54.122;17.974;2023-07-20T14:04:19;20.50;1.00
19385;DHT22;9828;54.122;17.974;2023-07-20T14:09:40;20.60;1.00
19385;DHT22;9828;54.122;17.974;2023-07-20T14:15:21;20.60;1.00
19385;DHT22;9828;54.122;17.974;2023-07-20T14:20:43;20.80;1.00
19385;DHT22;9828;54.122;17.974;2023-07-20T14:26:05;20.80;1.00
19385;DHT22;9828;54.122;17.974;2023-07-20T14:31:26;21.10;1.00
19385;DHT22;9828;54.122;17.974;2023-07-20T14:36:48;21.00;1.00
19385;DHT22;9828;54.122;17.974;2023-07-20T14:42:10;21.00;1.00
19385;DHT22;9828;54.122;17.974;2023-07-20T14:47:32;21.20;1.00
19385;DHT22;9828;54.122;17.974;2023-07-20T14:52:55;21.20;1.00
19385;DHT22;9828;54.122;17.974;2023-07-20T14:58:17;21.30;99.90
19385;DHT22;9828;54.122;17.974;2023-07-20T15:03:38;21.40;99.90
19385;DHT22;9828;54.122;17.974;2023-07-20T15:09:00;21.40;99.90
19385;DHT22;9828;54.122;17.974;2023-07-20T15:14:22;21.30;1.00
19385;DHT22;9828;54.122;17.974;2023-07-20T15:19:43;21.30;1.00
19385;DHT22;9828;54.122;17.974;2023-07-20T15:25:06;21.20;1.00
19385;DHT22;9828;54.122;17.974;2023-07-20T15:30:28;21.10;1.00
19385;DHT22;9828;54.122;17.974;2023-07-20T15:35:52;20.80;1.00
19385;DHT22;9828;54.122;17.974;2023-07-20T15:41:14;20.90;1.00
19385;DHT22;9828;54.122;17.974;2023-07-20T15:52:00;20.70;1.00
19385;DHT22;9828;54.122;17.974;2023-07-20T15:57:21;20.50;1.00
19385;DHT22;9828;54.122;17.974;2023-07-20T16:02:43;20.30;99.90
19385;DHT22;9828;54.122;17.974;2023-07-20T16:08:04;20.30;1.00
19385;DHT22;9828;54.122;17.974;2023-07-20T16:13:26;20.40;99.90
19385;DHT22;9828;54.122;17.974;2023-07-20T16:18:50;20.30;99.90
19385;DHT22;9828;54.122;17.974;2023-07-20T16:24:12;20.30;99.90
19385;DHT22;9828;54.122;17.974;2023-07-20T16:29:34;20.30;1.00
19385;DHT22;9828;54.122;17.974;2023-07-20T16:34:56;20.00;99.90
19385;DHT22;9828;54.122;17.974;2023-07-20T16:40:30;19.90;1.00
19385;DHT22;9828;54.122;17.974;2023-07-20T16:46:01;19.80;1.00
19385;DHT22;9828;54.122;17.974;2023-07-20T16:51:43;19.60;1.00
19385;DHT22;9828;54.122;17.974;2023-07-20T16:57:05;19.60;1.00
19385;DHT22;9828;54.122;17.974;2023-07-20T17:02:26;19.70;1.00
19385;DHT22;9828;54.122;17.974;2023-07-20T17:07:48;19.50;1.00
19385;DHT22;9828;54.122;17.974;2023-07-20T17:13:16;19.50;1.00
19385;DHT22;9828;54.122;17.974;2023-07-20T17:18:37;19.40;1.00
19385;DHT22;9828;54.122;17.974;2023-07-20T17:23:58;19.20;99.90
19385;DHT22;9828;54.122;17.974;2023-07-20T17:29:21;19.20;99.90
19385;DHT22;9828;54.122;17.974;2023-07-20T17:34:43;19.00;99.90
19385;DHT22;9828;54.122;17.974;2023-07-20T17:40:08;18.90;99.90
19385;DHT22;9828;54.122;17.974;2023-07-20T17:45:35;18.80;99.90
19385;DHT22;9828;54.122;17.974;2023-07-20T17:50:59;18.70;99.90
19385;DHT22;9828;54.122;17.974;2023-07-20T17:56:21;18.60;99.90
19385;DHT22;9828;54.122;17.974;2023-07-20T18:01:42;18.50;99.90
19385;DHT22;9828;54.122;17.974;2023-07-20T18:07:05;18.40;99.90
19385;DHT22;9828;54.122;17.974;2023-07-20T18:12:27;18.30;99.90
19385;DHT22;9828;54.122;17.974;2023-07-20T18:17:49;18.20;99.90
19385;DHT22;9828;54.122;17.974;2023-07-20T18:23:10;18.00;99.90
19385;DHT22;9828;54.122;17.974;2023-07-20T18:28:31;18.00;1.00
19385;DHT22;9828;54.122;17.974;2023-07-20T18:33:52;17.70;99.90
19385;DHT22;9828;54.122;17.974;2023-07-20T18:39:15;17.70;99.90
19385;DHT22;9828;54.122;17.974;2023-07-20T18:44:36;17.70;99.90
19385;DHT22;9828;54.122;17.974;2023-07-20T18:49:58;17.60;99.90
19385;DHT22;9828;54.122;17.974;2023-07-20T18:55:19;17.50;99.90
19385;DHT22;9828;54.122;17.974;2023-07-20T19:00:40;17.50;99.90
19385;DHT22;9828;54.122;17.974;2023-07-20T19:06:02;17.40;99.90
19385;DHT22;9828;54.122;17.974;2023-07-20T19:11:24;17.30;99.90
19385;DHT22;9828;54.122;17.974;2023-07-20T19:16:48;17.30;1.00
19385;DHT22;9828;54.122;17.974;2023-07-20T19:22:09;17.10;1.00
19385;DHT22;9828;54.122;17.974;2023-07-20T19:27:31;17.10;1.00
19385;DHT22;9828;54.122;17.974;2023-07-20T19:32:52;17.00;1.00
19385;DHT22;9828;54.122;17.974;2023-07-20T19:38:25;16.90;1.00
19385;DHT22;9828;54.122;17.974;2023-07-20T19:43:46;16.80;1.00
19385;DHT22;9828;54.122;17.974;2023-07-20T19:49:07;16.80;1.00
19385;DHT22;9828;54.122;17.974;2023-07-20T19:54:29;16.80;1.00
19385;DHT22;9828;54.122;17.974;2023-07-20T19:59:51;16.70;1.00
19385;DHT22;9828;54.122;17.974;2023-07-20T20:05:12;16.60;1.00
19385;DHT22;9828;54.122;17.974;2023-07-20T20:10:36;16.50;1.00
19385;DHT22;9828;54.122;17.974;2023-07-20T20:16:03;16.40;1.00
19385;DHT22;9828;54.122;17.974;2023-07-20T20:21:25;16.40;1.00
19385;DHT22;9828;54.122;17.974;2023-07-20T20:26:47;16.30;1.00
19385;DHT22;9828;54.122;17.974;2023-07-20T20:32:08;16.20;9.30
19385;DHT22;9828;54.122;17.974;2023-07-20T20:37:31;16.20;77.00
19385;DHT22;9828;54.122;17.974;2023-07-20T20:42:52;16.10;99.90
19385;DHT22;9828;54.122;17.974;2023-07-20T20:48:14;16.10;99.90
19385;DHT22;9828;54.122;17.974;2023-07-20T20:53:35;16.00;99.90
19385;DHT22;9828;54.122;17.974;2023-07-20T20:58:56;15.90;99.90
19385;DHT22;9828;54.122;17.974;2023-07-20T21:04:18;15.90;99.90
19385;DHT22;9828;54.122;17.974;2023-07-20T21:09:42;15.90;99.90
19385;DHT22;9828;54.122;17.974;2023-07-20T21:15:05;15.90;99.90
19385;DHT22;9828;54.122;17.974;2023-07-20T21:20:27;15.80;99.90
19385;DHT22;9828;54.122;17.974;2023-07-20T21:25:48;15.80;1.00
19385;DHT22;9828;54.122;17.974;2023-07-20T21:31:09;15.70;1.00
19385;DHT22;9828;54.122;17.974;2023-07-20T21:36:31;15.60;1.00
19385;DHT22;9828;54.122;17.974;2023-07-20T21:41:53;15.50;1.00
19385;DHT22;9828;54.122;17.974;2023-07-20T21:47:14;15.50;1.00
19385;DHT22;9828;54.122;17.974;2023-07-20T21:52:36;15.50;1.00
19385;DHT22;9828;54.122;17.974;2023-07-20T21:57:57;15.50;1.00
19385;DHT22;9828;54.122;17.974;2023-07-20T22:03:19;15.40;14.80
19385;DHT22;9828;54.122;17.974;2023-07-20T22:08:42;15.30;99.90
19385;DHT22;9828;54.122;17.974;2023-07-20T22:14:04;15.20;99.90
19385;DHT22;9828;54.122;17.974;2023-07-20T22:19:25;15.10;99.90
19385;DHT22;9828;54.122;17.974;2023-07-20T22:24:48;15.10;99.90
19385;DHT22;9828;54.122;17.974;2023-07-20T22:30:09;15.00;1.00
19385;DHT22;9828;54.122;17.974;2023-07-20T22:35:33;14.90;99.90
19385;DHT22;9828;54.122;17.974;2023-07-20T22:40:54;14.90;1.00
19385;DHT22;9828;54.122;17.974;2023-07-20T22:46:16;14.90;1.00
19385;DHT22;9828;54.122;17.974;2023-07-20T22:51:38;14.80;1.00
19385;DHT22;9828;54.122;17.974;2023-07-20T22:56:59;14.90;1.00
19385;DHT22;9828;54.122;17.974;2023-07-20T23:02:21;14.80;1.00
19385;DHT22;9828;54.122;17.974;2023-07-20T23:07:43;14.70;1.00
19385;DHT22;9828;54.122;17.974;2023-07-20T23:13:04;14.70;1.00
19385;DHT22;9828;54.122;17.974;2023-07-20T23:18:26;14.70;1.00
19385;DHT22;9828;54.122;17.974;2023-07-20T23:23:47;14.80;1.00
19385;DHT22;9828;54.122;17.974;2023-07-20T23:29:10;14.80;1.00
19385;DHT22;9828;54.122;17.974;2023-07-20T23:34:31;14.80;1.00
19385;DHT22;9828;54.122;17.974;2023-07-20T23:39:55;14.90;1.00
19385;DHT22;9828;54.122;17.974;2023-07-20T23:45:17;14.90;1.00
19385;DHT22;9828;54.122;17.974;2023-07-20T23:50:41;14.90;1.00
19385;DHT22;9828;54.122;17.974;2023-07-20T23:56:06;14.80;99.90
